createdAt,value
2022-09-29T00:00:01.023Z,989.70
2022-09-29T00:00:22.059Z,989.70
2022-09-29T00:00:43.104Z,989.72
2022-09-29T00:01:04.154Z,989.72
2022-09-29T00:01:25.248Z,989.74
2022-09-29T00:01:46.346Z,989.74
2022-09-29T00:02:07.525Z,989.74
2022-09-29T00:02:28.659Z,989.70
2022-09-29T00:02:49.758Z,989.74
2022-09-29T00:03:10.822Z,989.74
2022-09-29T00:03:31.934Z,989.74
2022-09-29T00:03:52.955Z,989.76
2022-09-29T00:04:14.014Z,989.78
2022-09-29T00:04:35.076Z,989.76
2022-09-29T00:04:56.127Z,989.76
2022-09-29T00:05:17.201Z,989.78
2022-09-29T00:05:38.252Z,989.76
2022-09-29T00:05:59.303Z,989.76
2022-09-29T00:06:20.362Z,989.76
2022-09-29T00:06:41.435Z,989.76
2022-09-29T00:07:02.497Z,989.78
2022-09-29T00:07:23.579Z,989.74
2022-09-29T00:07:44.641Z,989.76
2022-09-29T00:08:05.707Z,989.78
2022-09-29T00:08:26.742Z,989.74
2022-09-29T00:08:47.798Z,989.74
2022-09-29T00:09:08.835Z,989.72
2022-09-29T00:09:29.894Z,989.74
2022-09-29T00:09:50.957Z,989.72
2022-09-29T00:10:12.015Z,989.76
2022-09-29T00:10:33.089Z,989.74
2022-09-29T00:10:54.164Z,989.74
2022-09-29T00:11:15.202Z,989.72
2022-09-29T00:11:36.248Z,989.74
2022-09-29T00:11:57.311Z,989.72
2022-09-29T00:12:18.340Z,989.74
2022-09-29T00:12:39.403Z,989.76
2022-09-29T00:13:00.452Z,989.72
2022-09-29T00:13:21.538Z,989.74
2022-09-29T00:13:42.578Z,989.74
2022-09-29T00:14:03.612Z,989.76
2022-09-29T00:14:24.692Z,989.74
2022-09-29T00:14:47.977Z,989.76
2022-09-29T00:15:09.101Z,989.78
2022-09-29T00:15:30.178Z,989.76
2022-09-29T00:15:51.237Z,989.74
2022-09-29T00:16:12.309Z,989.76
2022-09-29T00:16:33.404Z,989.78
2022-09-29T00:16:54.476Z,989.76
2022-09-29T00:17:15.523Z,989.80
2022-09-29T00:17:36.586Z,989.76
2022-09-29T00:18:13.212Z,989.76
2022-09-29T00:18:24.600Z,989.80
2022-09-29T00:18:45.661Z,989.78
2022-09-29T00:19:06.706Z,989.78
2022-09-29T00:19:27.768Z,989.74
2022-09-29T00:19:48.837Z,989.80
2022-09-29T00:20:09.878Z,989.76
2022-09-29T00:20:30.930Z,989.76
2022-09-29T00:20:51.987Z,989.78
2022-09-29T00:21:13.041Z,989.78
2022-09-29T00:21:34.102Z,989.74
2022-09-29T00:21:55.158Z,989.76
2022-09-29T00:22:16.204Z,989.78
2022-09-29T00:22:37.251Z,989.78
2022-09-29T00:22:58.331Z,989.76
2022-09-29T00:23:19.376Z,989.76
2022-09-29T00:23:40.425Z,989.78
2022-09-29T00:24:01.513Z,989.78
2022-09-29T00:24:22.536Z,989.76
2022-09-29T00:24:43.581Z,989.74
2022-09-29T00:25:04.652Z,989.76
2022-09-29T00:25:25.685Z,989.76
2022-09-29T00:25:46.730Z,989.76
2022-09-29T00:26:07.822Z,989.74
2022-09-29T00:26:28.867Z,989.72
2022-09-29T00:26:49.917Z,989.72
2022-09-29T00:27:10.989Z,989.74
2022-09-29T00:27:32.036Z,989.74
2022-09-29T00:27:53.084Z,989.74
2022-09-29T00:28:14.166Z,989.74
2022-09-29T00:28:35.219Z,989.74
2022-09-29T00:28:56.320Z,989.74
2022-09-29T00:29:17.382Z,989.72
2022-09-29T00:29:38.382Z,989.76
2022-09-29T00:29:59.439Z,989.72
2022-09-29T00:30:20.484Z,989.72
2022-09-29T00:30:41.536Z,989.74
2022-09-29T00:31:02.685Z,989.74
2022-09-29T00:31:23.821Z,989.74
2022-09-29T00:31:44.882Z,989.74
2022-09-29T00:32:05.909Z,989.74
2022-09-29T00:32:26.951Z,989.74
2022-09-29T00:32:48.014Z,989.76
2022-09-29T00:33:09.070Z,989.74
2022-09-29T00:33:30.197Z,989.76
2022-09-29T00:33:51.234Z,989.76
2022-09-29T00:34:12.281Z,989.76
2022-09-29T00:34:33.337Z,989.78
2022-09-29T00:34:54.436Z,989.74
2022-09-29T00:35:15.457Z,989.74
2022-09-29T00:35:36.536Z,989.76
2022-09-29T00:35:57.560Z,989.78
2022-09-29T00:36:18.613Z,989.76
2022-09-29T00:36:39.660Z,989.74
2022-09-29T00:37:00.703Z,989.76
2022-09-29T00:37:21.761Z,989.76
2022-09-29T00:37:42.837Z,989.78
2022-09-29T00:38:03.878Z,989.72
2022-09-29T00:38:24.928Z,989.74
2022-09-29T00:38:46.161Z,989.78
2022-09-29T00:39:07.185Z,989.78
2022-09-29T00:39:28.213Z,989.78
2022-09-29T00:39:49.261Z,989.80
2022-09-29T00:40:10.329Z,989.78
2022-09-29T00:40:31.459Z,989.78
2022-09-29T00:40:52.553Z,989.80
2022-09-29T00:41:13.616Z,989.80
2022-09-29T00:41:34.665Z,989.82
2022-09-29T00:41:55.713Z,989.82
2022-09-29T00:42:16.788Z,989.78
2022-09-29T00:42:37.824Z,989.78
2022-09-29T00:42:58.877Z,989.78
2022-09-29T00:43:19.938Z,989.82
2022-09-29T00:43:40.972Z,989.82
2022-09-29T00:44:02.072Z,989.78
2022-09-29T00:44:23.099Z,989.80
2022-09-29T00:44:44.146Z,989.80
2022-09-29T00:45:05.271Z,989.80
2022-09-29T00:45:26.337Z,989.80
2022-09-29T00:45:47.446Z,989.80
2022-09-29T00:46:08.509Z,989.80
2022-09-29T00:46:29.587Z,989.80
2022-09-29T00:46:50.607Z,989.82
2022-09-29T00:47:11.655Z,989.82
2022-09-29T00:47:32.707Z,989.84
2022-09-29T00:47:53.745Z,989.80
2022-09-29T00:48:14.784Z,989.82
2022-09-29T00:48:35.862Z,989.80
2022-09-29T00:48:56.898Z,989.82
2022-09-29T00:49:17.965Z,989.84
2022-09-29T00:49:39.009Z,989.80
2022-09-29T00:50:00.069Z,989.80
2022-09-29T00:50:21.113Z,989.82
2022-09-29T00:50:42.167Z,989.82
2022-09-29T00:51:03.224Z,989.80
2022-09-29T00:51:24.295Z,989.80
2022-09-29T00:51:45.341Z,989.80
2022-09-29T00:52:06.381Z,989.80
2022-09-29T00:52:27.435Z,989.80
2022-09-29T00:52:48.490Z,989.78
2022-09-29T00:53:09.536Z,989.80
2022-09-29T00:53:30.597Z,989.78
2022-09-29T00:53:51.642Z,989.80
2022-09-29T00:54:12.721Z,989.78
2022-09-29T00:54:33.767Z,989.82
2022-09-29T00:54:54.814Z,989.82
2022-09-29T00:55:15.866Z,989.76
2022-09-29T00:55:36.917Z,989.76
2022-09-29T00:55:57.979Z,989.76
2022-09-29T00:56:19.030Z,989.74
2022-09-29T00:56:40.074Z,989.76
2022-09-29T00:57:01.130Z,989.78
2022-09-29T00:57:22.177Z,989.76
2022-09-29T00:57:43.220Z,989.76
2022-09-29T00:58:04.285Z,989.78
2022-09-29T00:58:25.329Z,989.78
2022-09-29T00:58:46.411Z,989.76
2022-09-29T00:59:07.451Z,989.76
2022-09-29T00:59:28.499Z,989.76
2022-09-29T00:59:49.664Z,989.76
2022-09-29T01:00:10.714Z,989.76
2022-09-29T01:00:31.833Z,989.76
2022-09-29T01:00:52.977Z,989.74
2022-09-29T01:01:14.096Z,989.76
2022-09-29T01:01:35.121Z,989.74
2022-09-29T01:01:56.218Z,989.74
2022-09-29T01:02:17.282Z,989.78
2022-09-29T01:02:38.335Z,989.74
2022-09-29T01:02:59.389Z,989.74
2022-09-29T01:03:20.477Z,989.78
2022-09-29T01:03:41.522Z,989.74
2022-09-29T01:04:02.547Z,989.74
2022-09-29T01:04:23.581Z,989.76
2022-09-29T01:04:44.639Z,989.78
2022-09-29T01:05:05.817Z,989.76
2022-09-29T01:05:26.854Z,989.78
2022-09-29T01:05:47.902Z,989.80
2022-09-29T01:06:08.946Z,989.80
2022-09-29T01:06:30.012Z,989.80
2022-09-29T01:06:51.054Z,989.78
2022-09-29T01:07:12.103Z,989.78
2022-09-29T01:07:33.146Z,989.78
2022-09-29T01:07:54.195Z,989.76
2022-09-29T01:08:15.243Z,989.76
2022-09-29T01:08:36.357Z,989.74
2022-09-29T01:08:57.376Z,989.78
2022-09-29T01:09:18.444Z,989.74
2022-09-29T01:09:39.483Z,989.76
2022-09-29T01:10:00.543Z,989.78
2022-09-29T01:10:21.614Z,989.74
2022-09-29T01:10:42.651Z,989.74
2022-09-29T01:11:03.735Z,989.76
2022-09-29T01:11:24.765Z,989.76
2022-09-29T01:11:45.815Z,989.74
2022-09-29T01:12:06.870Z,989.72
2022-09-29T01:12:27.922Z,989.72
2022-09-29T01:12:48.964Z,989.74
2022-09-29T01:13:10.033Z,989.74
2022-09-29T01:13:31.089Z,989.76
2022-09-29T01:13:52.175Z,989.76
2022-09-29T01:14:13.259Z,989.74
2022-09-29T01:14:34.282Z,989.74
2022-09-29T01:14:55.323Z,989.76
2022-09-29T01:15:16.372Z,989.72
2022-09-29T01:15:37.552Z,989.74
2022-09-29T01:15:58.635Z,989.72
2022-09-29T01:16:19.781Z,989.72
2022-09-29T01:16:40.856Z,989.72
2022-09-29T01:17:01.878Z,989.72
2022-09-29T01:17:22.925Z,989.72
2022-09-29T01:17:43.983Z,989.70
2022-09-29T01:18:05.032Z,989.66
2022-09-29T01:18:26.087Z,989.72
2022-09-29T01:18:47.143Z,989.68
2022-09-29T01:19:08.192Z,989.68
2022-09-29T01:19:29.249Z,989.70
2022-09-29T01:19:50.293Z,989.68
2022-09-29T01:20:11.353Z,989.68
2022-09-29T01:20:32.390Z,989.66
2022-09-29T01:20:53.561Z,989.68
2022-09-29T01:21:14.647Z,989.68
2022-09-29T01:21:35.672Z,989.68
2022-09-29T01:21:56.726Z,989.68
2022-09-29T01:22:17.794Z,989.66
2022-09-29T01:22:38.830Z,989.68
2022-09-29T01:22:59.877Z,989.66
2022-09-29T01:23:20.926Z,989.66
2022-09-29T01:23:41.975Z,989.62
2022-09-29T01:24:03.015Z,989.68
2022-09-29T01:24:24.092Z,989.64
2022-09-29T01:24:45.133Z,989.64
2022-09-29T01:25:06.172Z,989.62
2022-09-29T01:25:27.221Z,989.64
2022-09-29T01:25:48.264Z,989.66
2022-09-29T01:26:09.329Z,989.62
2022-09-29T01:26:30.397Z,989.64
2022-09-29T01:26:51.447Z,989.64
2022-09-29T01:27:12.492Z,989.62
2022-09-29T01:27:33.536Z,989.62
2022-09-29T01:27:54.584Z,989.64
2022-09-29T01:28:15.624Z,989.64
2022-09-29T01:28:36.677Z,989.64
2022-09-29T01:28:57.724Z,989.64
2022-09-29T01:29:18.769Z,989.64
2022-09-29T01:29:39.817Z,989.64
2022-09-29T01:30:00.889Z,989.66
2022-09-29T01:30:21.914Z,989.66
2022-09-29T01:30:42.954Z,989.64
2022-09-29T01:31:04.070Z,989.64
2022-09-29T01:31:25.239Z,989.64
2022-09-29T01:31:46.292Z,989.66
2022-09-29T01:32:07.309Z,989.66
2022-09-29T01:32:28.357Z,989.66
2022-09-29T01:32:49.404Z,989.66
2022-09-29T01:33:10.448Z,989.66
2022-09-29T01:33:31.491Z,989.68
2022-09-29T01:33:52.573Z,989.68
2022-09-29T01:34:13.612Z,989.68
2022-09-29T01:34:34.664Z,989.66
2022-09-29T01:34:55.713Z,989.66
2022-09-29T01:35:16.762Z,989.66
2022-09-29T01:35:37.803Z,989.68
2022-09-29T01:35:58.860Z,989.68
2022-09-29T01:36:19.916Z,989.70
2022-09-29T01:36:40.969Z,989.70
2022-09-29T01:37:02.010Z,989.66
2022-09-29T01:37:23.064Z,989.72
2022-09-29T01:37:44.111Z,989.72
2022-09-29T01:38:05.162Z,989.70
2022-09-29T01:38:26.228Z,989.70
2022-09-29T01:38:47.272Z,989.70
2022-09-29T01:39:08.336Z,989.72
2022-09-29T01:39:29.418Z,989.70
2022-09-29T01:39:50.439Z,989.76
2022-09-29T01:40:11.489Z,989.74
2022-09-29T01:40:32.605Z,989.72
2022-09-29T01:40:53.809Z,989.76
2022-09-29T01:41:14.885Z,989.74
2022-09-29T01:41:35.979Z,989.72
2022-09-29T01:41:57.129Z,989.74
2022-09-29T01:42:18.157Z,989.74
2022-09-29T01:42:39.213Z,989.76
2022-09-29T01:43:00.254Z,989.76
2022-09-29T01:43:21.299Z,989.76
2022-09-29T01:43:42.344Z,989.74
2022-09-29T01:44:03.416Z,989.74
2022-09-29T01:44:24.438Z,989.76
2022-09-29T01:44:45.483Z,989.78
2022-09-29T01:45:06.540Z,989.78
2022-09-29T01:45:27.623Z,989.78
2022-09-29T01:45:48.681Z,989.76
2022-09-29T01:46:09.791Z,989.74
2022-09-29T01:46:30.845Z,989.76
2022-09-29T01:46:51.889Z,989.80
2022-09-29T01:47:13.065Z,989.76
2022-09-29T01:47:34.106Z,989.78
2022-09-29T01:47:55.159Z,989.80
2022-09-29T01:48:16.230Z,989.82
2022-09-29T01:48:37.284Z,989.80
2022-09-29T01:48:58.344Z,989.80
2022-09-29T01:49:19.375Z,989.80
2022-09-29T01:49:40.427Z,989.82
2022-09-29T01:50:01.518Z,989.84
2022-09-29T01:50:22.546Z,989.84
2022-09-29T01:50:43.596Z,989.86
2022-09-29T01:51:04.642Z,989.80
2022-09-29T01:51:25.743Z,989.80
2022-09-29T01:51:46.769Z,989.80
2022-09-29T01:52:07.826Z,989.82
2022-09-29T01:52:28.977Z,989.80
2022-09-29T01:52:50.032Z,989.82
2022-09-29T01:53:11.087Z,989.82
2022-09-29T01:53:32.126Z,989.80
2022-09-29T01:53:53.276Z,989.86
2022-09-29T01:54:14.406Z,989.82
2022-09-29T01:54:35.431Z,989.84
2022-09-29T01:54:56.456Z,989.84
2022-09-29T01:55:17.510Z,989.86
2022-09-29T01:55:38.562Z,989.86
2022-09-29T01:55:59.632Z,989.86
2022-09-29T01:56:20.651Z,989.94
2022-09-29T01:56:41.711Z,989.86
2022-09-29T01:57:02.754Z,989.94
2022-09-29T01:57:23.811Z,989.94
2022-09-29T01:57:44.973Z,989.96
2022-09-29T01:58:06.007Z,989.94
2022-09-29T01:58:27.106Z,989.94
2022-09-29T01:58:48.102Z,989.96
2022-09-29T01:59:09.155Z,989.94
2022-09-29T01:59:30.195Z,989.94
2022-09-29T01:59:51.250Z,989.96
2022-09-29T02:00:12.290Z,989.94
2022-09-29T02:00:33.434Z,989.96
2022-09-29T02:00:54.493Z,989.94
2022-09-29T02:01:15.601Z,989.94
2022-09-29T02:01:36.615Z,989.94
2022-09-29T02:02:00.679Z,989.98
2022-09-29T02:02:22.041Z,989.96
2022-09-29T02:02:43.108Z,989.98
2022-09-29T02:03:04.155Z,989.96
2022-09-29T02:03:25.205Z,989.96
2022-09-29T02:03:46.246Z,989.94
2022-09-29T02:04:07.298Z,989.94
2022-09-29T02:04:28.373Z,989.98
2022-09-29T02:04:49.397Z,989.94
2022-09-29T02:05:10.437Z,989.94
2022-09-29T02:05:31.485Z,989.96
2022-09-29T02:05:52.534Z,989.94
2022-09-29T02:06:13.580Z,989.94
2022-09-29T02:06:34.640Z,989.94
2022-09-29T02:06:55.672Z,989.94
2022-09-29T02:07:16.724Z,989.84
2022-09-29T02:07:37.775Z,989.86
2022-09-29T02:07:58.841Z,989.86
2022-09-29T02:08:19.884Z,989.84
2022-09-29T02:08:40.957Z,989.86
2022-09-29T02:09:01.984Z,989.94
2022-09-29T02:09:23.036Z,989.86
2022-09-29T02:09:44.105Z,989.86
2022-09-29T02:10:05.142Z,989.86
2022-09-29T02:10:26.213Z,989.86
2022-09-29T02:10:47.232Z,989.86
2022-09-29T02:11:08.276Z,989.86
2022-09-29T02:11:29.359Z,989.84
2022-09-29T02:11:50.403Z,989.84
2022-09-29T02:12:11.440Z,989.86
2022-09-29T02:12:32.487Z,989.86
2022-09-29T02:12:53.548Z,989.86
2022-09-29T02:13:14.600Z,989.84
2022-09-29T02:13:35.655Z,989.84
2022-09-29T02:13:56.737Z,989.94
2022-09-29T02:14:17.848Z,989.84
2022-09-29T02:14:38.893Z,989.84
2022-09-29T02:14:59.931Z,989.84
2022-09-29T02:15:20.972Z,989.86
2022-09-29T02:15:42.015Z,989.94
2022-09-29T02:16:03.159Z,989.86
2022-09-29T02:16:24.248Z,989.86
2022-09-29T02:16:45.269Z,989.94
2022-09-29T02:17:06.309Z,989.84
2022-09-29T02:17:27.378Z,989.96
2022-09-29T02:17:48.416Z,989.94
2022-09-29T02:18:09.485Z,989.94
2022-09-29T02:18:30.557Z,989.86
2022-09-29T02:18:54.091Z,989.86
2022-09-29T02:19:17.262Z,989.94
2022-09-29T02:19:38.290Z,989.96
2022-09-29T02:19:59.387Z,989.96
2022-09-29T02:20:20.396Z,989.98
2022-09-29T02:20:41.442Z,989.94
2022-09-29T02:21:02.486Z,989.96
2022-09-29T02:21:23.540Z,989.96
2022-09-29T02:21:44.590Z,990.02
2022-09-29T02:22:05.666Z,990.00
2022-09-29T02:22:26.690Z,989.98
2022-09-29T02:22:47.735Z,990.00
2022-09-29T02:23:08.830Z,989.96
2022-09-29T02:23:29.868Z,990.02
2022-09-29T02:23:50.913Z,989.98
2022-09-29T02:24:12.007Z,989.98
2022-09-29T02:24:33.038Z,990.00
2022-09-29T02:24:54.095Z,990.00
2022-09-29T02:25:15.138Z,990.02
2022-09-29T02:25:36.170Z,989.98
2022-09-29T02:25:57.235Z,990.02
2022-09-29T02:26:18.315Z,990.00
2022-09-29T02:26:39.334Z,990.02
2022-09-29T02:27:00.385Z,990.02
2022-09-29T02:27:21.433Z,990.00
2022-09-29T02:27:42.487Z,990.00
2022-09-29T02:28:03.532Z,990.00
2022-09-29T02:28:24.633Z,990.00
2022-09-29T02:28:45.652Z,990.00
2022-09-29T02:29:06.696Z,990.00
2022-09-29T02:29:27.741Z,990.02
2022-09-29T02:29:48.787Z,990.00
2022-09-29T02:30:09.852Z,990.00
2022-09-29T02:30:30.892Z,990.02
2022-09-29T02:30:51.989Z,990.04
2022-09-29T02:31:13.052Z,990.02
2022-09-29T02:31:34.177Z,990.04
2022-09-29T02:31:55.361Z,990.06
2022-09-29T02:32:16.397Z,990.04
2022-09-29T02:32:37.459Z,990.02
2022-09-29T02:32:58.510Z,990.04
2022-09-29T02:33:19.558Z,990.04
2022-09-29T02:33:40.719Z,990.06
2022-09-29T02:34:01.809Z,990.04
2022-09-29T02:34:22.825Z,990.06
2022-09-29T02:34:43.870Z,990.06
2022-09-29T02:35:04.986Z,990.06
2022-09-29T02:35:25.989Z,990.08
2022-09-29T02:35:47.022Z,990.04
2022-09-29T02:36:08.091Z,990.06
2022-09-29T02:36:29.158Z,990.08
2022-09-29T02:36:50.179Z,990.08
2022-09-29T02:37:11.574Z,990.08
2022-09-29T02:37:32.648Z,990.06
2022-09-29T02:37:53.688Z,990.06
2022-09-29T02:38:14.730Z,990.08
2022-09-29T02:38:35.782Z,990.08
2022-09-29T02:38:56.856Z,990.06
2022-09-29T02:39:17.880Z,990.08
2022-09-29T02:39:38.922Z,990.06
2022-09-29T02:39:59.990Z,990.08
2022-09-29T02:40:21.177Z,990.10
2022-09-29T02:40:42.219Z,990.08
2022-09-29T02:41:03.269Z,990.06
2022-09-29T02:41:24.298Z,990.08
2022-09-29T02:41:45.367Z,990.06
2022-09-29T02:42:06.409Z,990.10
2022-09-29T02:42:27.448Z,990.08
2022-09-29T02:42:48.612Z,990.10
2022-09-29T02:43:09.659Z,990.04
2022-09-29T02:43:30.702Z,990.10
2022-09-29T02:43:51.768Z,990.06
2022-09-29T02:44:12.872Z,990.04
2022-09-29T02:44:33.885Z,990.08
2022-09-29T02:44:54.916Z,990.08
2022-09-29T02:45:15.957Z,990.06
2022-09-29T02:45:37.100Z,990.06
2022-09-29T02:45:58.202Z,990.08
2022-09-29T02:46:19.245Z,990.06
2022-09-29T02:46:40.291Z,990.08
2022-09-29T02:47:01.326Z,990.08
2022-09-29T02:47:22.376Z,990.08
2022-09-29T02:47:43.408Z,990.10
2022-09-29T02:48:04.577Z,990.08
2022-09-29T02:48:25.617Z,990.10
2022-09-29T02:48:46.673Z,990.12
2022-09-29T02:49:07.768Z,990.10
2022-09-29T02:49:28.809Z,990.08
2022-09-29T02:49:49.848Z,990.10
2022-09-29T02:50:10.900Z,990.10
2022-09-29T02:50:31.949Z,990.10
2022-09-29T02:50:52.997Z,990.08
2022-09-29T02:51:14.057Z,990.12
2022-09-29T02:51:35.243Z,990.12
2022-09-29T02:51:56.259Z,990.10
2022-09-29T02:52:17.307Z,990.10
2022-09-29T02:52:38.358Z,990.10
2022-09-29T02:52:59.423Z,990.12
2022-09-29T02:53:20.507Z,990.12
2022-09-29T02:53:41.549Z,990.10
2022-09-29T02:54:02.633Z,990.10
2022-09-29T02:54:23.658Z,990.10
2022-09-29T02:54:44.707Z,990.10
2022-09-29T02:55:05.779Z,990.10
2022-09-29T02:55:26.805Z,990.12
2022-09-29T02:55:47.863Z,990.10
2022-09-29T02:56:08.935Z,990.12
2022-09-29T02:56:29.972Z,990.12
2022-09-29T02:56:50.998Z,990.14
2022-09-29T02:57:12.044Z,990.10
2022-09-29T02:57:33.110Z,990.12
2022-09-29T02:57:54.233Z,990.12
2022-09-29T02:58:15.265Z,990.14
2022-09-29T02:58:36.415Z,990.14
2022-09-29T02:58:57.446Z,990.14
2022-09-29T02:59:18.494Z,990.12
2022-09-29T02:59:39.548Z,990.12
2022-09-29T03:00:00.611Z,990.14
2022-09-29T03:00:21.685Z,990.12
2022-09-29T03:00:42.829Z,990.14
2022-09-29T03:01:03.971Z,990.14
2022-09-29T03:01:25.053Z,990.12
2022-09-29T03:01:46.090Z,990.12
2022-09-29T03:02:07.142Z,990.16
2022-09-29T03:02:28.257Z,990.18
2022-09-29T03:02:49.264Z,990.14
2022-09-29T03:03:10.359Z,990.16
2022-09-29T03:03:31.450Z,990.18
2022-09-29T03:03:52.676Z,990.18
2022-09-29T03:04:13.728Z,990.18
2022-09-29T03:04:34.769Z,990.16
2022-09-29T03:04:55.819Z,990.18
2022-09-29T03:05:16.867Z,990.14
2022-09-29T03:05:37.905Z,990.18
2022-09-29T03:05:58.955Z,990.18
2022-09-29T03:06:20.021Z,990.18
2022-09-29T03:06:41.068Z,990.18
2022-09-29T03:07:02.167Z,990.16
2022-09-29T03:07:23.193Z,990.16
2022-09-29T03:07:44.253Z,990.16
2022-09-29T03:08:05.315Z,990.16
2022-09-29T03:08:26.355Z,990.16
2022-09-29T03:08:47.400Z,990.16
2022-09-29T03:09:08.528Z,990.14
2022-09-29T03:09:29.560Z,990.16
2022-09-29T03:09:50.607Z,990.18
2022-09-29T03:10:11.703Z,990.16
2022-09-29T03:10:32.734Z,990.16
2022-09-29T03:10:53.799Z,990.18
2022-09-29T03:11:14.841Z,990.18
2022-09-29T03:11:35.888Z,990.18
2022-09-29T03:11:56.934Z,990.18
2022-09-29T03:12:18.007Z,990.18
2022-09-29T03:12:39.051Z,990.18
2022-09-29T03:13:00.120Z,990.16
2022-09-29T03:13:21.186Z,990.18
2022-09-29T03:13:42.234Z,990.16
2022-09-29T03:14:03.292Z,990.14
2022-09-29T03:14:24.357Z,990.08
2022-09-29T03:14:45.410Z,990.16
2022-09-29T03:15:06.476Z,990.08
2022-09-29T03:15:27.523Z,990.10
2022-09-29T03:15:48.771Z,990.12
2022-09-29T03:16:09.855Z,990.16
2022-09-29T03:16:30.919Z,990.08
2022-09-29T03:16:51.992Z,990.08
2022-09-29T03:17:13.039Z,990.08
2022-09-29T03:17:34.123Z,990.08
2022-09-29T03:17:55.144Z,990.08
2022-09-29T03:18:16.192Z,990.06
2022-09-29T03:18:37.259Z,990.12
2022-09-29T03:18:58.286Z,990.12
2022-09-29T03:19:19.337Z,990.10
2022-09-29T03:19:40.522Z,990.06
2022-09-29T03:20:01.549Z,990.08
2022-09-29T03:20:22.601Z,990.06
2022-09-29T03:20:43.715Z,990.06
2022-09-29T03:21:04.733Z,990.06
2022-09-29T03:21:25.792Z,990.06
2022-09-29T03:21:46.842Z,990.06
2022-09-29T03:22:07.901Z,990.06
2022-09-29T03:22:28.956Z,990.08
2022-09-29T03:22:50.028Z,990.08
2022-09-29T03:23:11.068Z,990.14
2022-09-29T03:23:32.129Z,990.08
2022-09-29T03:23:57.482Z,990.08
2022-09-29T03:24:19.093Z,990.10
2022-09-29T03:24:40.211Z,990.10
2022-09-29T03:25:01.390Z,990.10
2022-09-29T03:25:22.459Z,990.10
2022-09-29T03:25:43.485Z,990.12
2022-09-29T03:26:04.533Z,990.10
2022-09-29T03:26:25.654Z,990.12
2022-09-29T03:26:46.672Z,990.14
2022-09-29T03:27:07.747Z,990.14
2022-09-29T03:27:28.808Z,990.18
2022-09-29T03:27:49.845Z,990.16
2022-09-29T03:28:10.896Z,990.18
2022-09-29T03:28:31.953Z,990.16
2022-09-29T03:28:53.057Z,990.20
2022-09-29T03:29:14.068Z,990.20
2022-09-29T03:29:35.126Z,990.20
2022-09-29T03:29:56.181Z,990.20
2022-09-29T03:30:17.346Z,990.22
2022-09-29T03:30:38.405Z,990.22
2022-09-29T03:30:59.490Z,990.22
2022-09-29T03:31:20.638Z,990.24
2022-09-29T03:31:41.825Z,990.24
2022-09-29T03:32:02.892Z,990.24
2022-09-29T03:32:23.928Z,990.24
2022-09-29T03:32:44.987Z,990.24
2022-09-29T03:33:06.040Z,990.24
2022-09-29T03:33:27.093Z,990.22
2022-09-29T03:33:48.140Z,990.22
2022-09-29T03:34:09.187Z,990.22
2022-09-29T03:34:30.299Z,990.22
2022-09-29T03:34:51.319Z,990.22
2022-09-29T03:35:12.375Z,990.22
2022-09-29T03:35:33.444Z,990.22
2022-09-29T03:35:54.485Z,990.22
2022-09-29T03:36:15.557Z,990.22
2022-09-29T03:36:36.630Z,990.24
2022-09-29T03:36:57.654Z,990.25
2022-09-29T03:37:18.724Z,990.24
2022-09-29T03:37:39.772Z,990.25
2022-09-29T03:38:00.817Z,990.24
2022-09-29T03:38:21.881Z,990.24
2022-09-29T03:38:42.981Z,990.25
2022-09-29T03:39:04.031Z,990.27
2022-09-29T03:39:25.092Z,990.27
2022-09-29T03:39:46.138Z,990.25
2022-09-29T03:40:07.306Z,990.25
2022-09-29T03:40:28.400Z,990.25
2022-09-29T03:40:49.526Z,990.25
2022-09-29T03:41:10.533Z,990.27
2022-09-29T03:41:31.591Z,990.31
2022-09-29T03:41:52.665Z,990.31
2022-09-29T03:42:13.696Z,990.31
2022-09-29T03:42:34.742Z,990.27
2022-09-29T03:42:55.788Z,990.27
2022-09-29T03:43:16.857Z,990.31
2022-09-29T03:43:37.910Z,990.33
2022-09-29T03:43:58.956Z,990.25
2022-09-29T03:44:20.044Z,990.25
2022-09-29T03:44:41.084Z,990.29
2022-09-29T03:45:02.235Z,990.29
2022-09-29T03:45:23.326Z,990.29
2022-09-29T03:45:44.442Z,990.29
2022-09-29T03:46:05.602Z,990.27
2022-09-29T03:46:26.628Z,990.31
2022-09-29T03:46:47.673Z,990.25
2022-09-29T03:47:08.739Z,990.31
2022-09-29T03:47:29.789Z,990.27
2022-09-29T03:47:50.840Z,990.29
2022-09-29T03:48:11.893Z,990.27
2022-09-29T03:48:32.948Z,990.29
2022-09-29T03:48:54.130Z,990.29
2022-09-29T03:49:15.166Z,990.29
2022-09-29T03:49:36.228Z,990.27
2022-09-29T03:49:57.271Z,990.31
2022-09-29T03:50:18.321Z,990.29
2022-09-29T03:50:39.371Z,990.29
2022-09-29T03:51:00.420Z,990.29
2022-09-29T03:51:21.497Z,990.31
2022-09-29T03:51:42.555Z,990.29
2022-09-29T03:52:03.642Z,990.29
2022-09-29T03:52:24.673Z,990.29
2022-09-29T03:52:45.706Z,990.29
2022-09-29T03:53:06.777Z,990.27
2022-09-29T03:53:27.814Z,990.27
2022-09-29T03:53:48.857Z,990.25
2022-09-29T03:54:09.930Z,990.27
2022-09-29T03:54:31.038Z,990.27
2022-09-29T03:54:52.061Z,990.29
2022-09-29T03:55:13.116Z,990.29
2022-09-29T03:55:34.177Z,990.29
2022-09-29T03:55:55.218Z,990.27
2022-09-29T03:56:16.268Z,990.31
2022-09-29T03:56:37.321Z,990.25
2022-09-29T03:56:58.371Z,990.29
2022-09-29T03:57:19.409Z,990.29
2022-09-29T03:57:40.459Z,990.31
2022-09-29T03:58:01.501Z,990.31
2022-09-29T03:58:22.546Z,990.29
2022-09-29T03:58:43.593Z,990.31
2022-09-29T03:59:04.650Z,990.31
2022-09-29T03:59:25.704Z,990.31
2022-09-29T03:59:46.765Z,990.33
2022-09-29T04:00:07.801Z,990.31
2022-09-29T04:00:29.064Z,990.31
2022-09-29T04:00:50.237Z,990.33
2022-09-29T04:01:11.329Z,990.33
2022-09-29T04:01:32.413Z,990.33
2022-09-29T04:01:53.460Z,990.33
2022-09-29T04:02:14.600Z,990.35
2022-09-29T04:02:35.650Z,990.31
2022-09-29T04:02:56.701Z,990.31
2022-09-29T04:03:17.758Z,990.33
2022-09-29T04:03:38.816Z,990.35
2022-09-29T04:03:59.859Z,990.33
2022-09-29T04:04:20.925Z,990.33
2022-09-29T04:04:41.961Z,990.33
2022-09-29T04:05:03.005Z,990.35
2022-09-29T04:05:24.173Z,990.37
2022-09-29T04:05:45.221Z,990.37
2022-09-29T04:06:06.288Z,990.33
2022-09-29T04:06:27.344Z,990.35
2022-09-29T04:06:48.425Z,990.37
2022-09-29T04:07:09.449Z,990.39
2022-09-29T04:07:30.486Z,990.39
2022-09-29T04:07:51.541Z,990.41
2022-09-29T04:08:12.596Z,990.37
2022-09-29T04:08:33.639Z,990.41
2022-09-29T04:08:54.747Z,990.37
2022-09-29T04:09:15.919Z,990.39
2022-09-29T04:09:36.916Z,990.43
2022-09-29T04:09:57.961Z,990.41
2022-09-29T04:10:19.017Z,990.39
2022-09-29T04:10:40.100Z,990.43
2022-09-29T04:11:01.136Z,990.39
2022-09-29T04:11:22.186Z,990.37
2022-09-29T04:11:43.251Z,990.37
2022-09-29T04:12:04.301Z,990.41
2022-09-29T04:12:25.345Z,990.39
2022-09-29T04:12:46.392Z,990.39
2022-09-29T04:13:07.478Z,990.35
2022-09-29T04:13:28.492Z,990.39
2022-09-29T04:13:49.555Z,990.39
2022-09-29T04:14:10.590Z,990.37
2022-09-29T04:14:31.666Z,990.35
2022-09-29T04:14:52.696Z,990.35
2022-09-29T04:15:13.749Z,990.35
2022-09-29T04:15:34.841Z,990.35
2022-09-29T04:15:56.033Z,990.35
2022-09-29T04:16:17.095Z,990.35
2022-09-29T04:16:38.189Z,990.33
2022-09-29T04:16:59.231Z,990.31
2022-09-29T04:17:20.282Z,990.33
2022-09-29T04:17:41.329Z,990.35
2022-09-29T04:18:02.374Z,990.37
2022-09-29T04:18:23.454Z,990.35
2022-09-29T04:18:44.528Z,990.33
2022-09-29T04:19:05.607Z,990.33
2022-09-29T04:19:26.639Z,990.31
2022-09-29T04:19:47.682Z,990.33
2022-09-29T04:20:08.721Z,990.29
2022-09-29T04:20:29.783Z,990.35
2022-09-29T04:20:50.853Z,990.33
2022-09-29T04:21:11.896Z,990.35
2022-09-29T04:21:33.028Z,990.33
2022-09-29T04:21:54.068Z,990.33
2022-09-29T04:22:15.093Z,990.33
2022-09-29T04:22:36.150Z,990.33
2022-09-29T04:22:57.213Z,990.33